• Join FlightAware (Why Join?)
  • Login
  • US Flag 
11:47AM EST


 

Airport Tracker/Info


-or-


 

Live Flight TrackerFlight Track Log ✈ SWA1728 ✈ 29-Apr-2013 ✈ KDEN - KMDW

Flight Track Log - Related Links

Times and Time Zones

All times are in EDT time to prevent confusion due to time zone crossing. See the SWA1728 flight status page for this flight to view local times or setup timezone preferences in your user account.

Time Position Orientation Groundspeed Altitude Reporting Facility
EDT Latitude Longitude Course Direction KTS MPH feet Rate Location/Type
06:01PM 39.7167 -104.5500 134° Southeast 275 316 11,000  Level Denver TRACON
06:01PM 39.7067 -104.5111 108° East 279 321 12,100 2,580 Climbing Denver Center
06:02PM 39.7100 -104.3942 88° East 301 346 14,800 2,040 Climbing Denver Center
06:03PM 39.7411 -104.2792 71° East 341 392 16,400 2,160 Climbing Denver Center
06:04PM 39.7736 -104.1558 71° East 361 415 19,300 2,220 Climbing Denver Center
06:05PM 39.8667 -103.8122 90° East  Level FlightAware Approximate
06:06PM 39.8100 -104.0133 72° East 396 456 21,000  Level Denver Center
06:07PM 39.8467 -103.8717 71° East 411 473 23,000 1,920 Climbing Denver Center
06:08PM 39.8825 -103.7325 71° East 418 481 25,000 1,680 Climbing Denver Center
06:09PM 39.9006 -103.5769 81° East 431 496 26,500 1,740 Climbing Denver Center
06:10PM 39.9236 -103.3867 81° East 450 518 28,600 1,620 Climbing Denver Center
06:11PM 39.9408 -103.2236 82° East 451 519 29,900 1,440 Climbing Denver Center
06:12PM 39.9606 -103.0586 81° East 456 525 31,600 1,560 Climbing Denver Center
06:13PM 39.9772 -102.8964 82° East 448 516 33,200 1,560 Climbing Denver Center
06:14PM 39.9944 -102.7369 82° East 442 509 34,800 1,260 Climbing Denver Center
06:15PM 40.0131 -102.5658 82° East 441 507 35,900 960 Climbing Denver Center
06:16PM 40.0286 -102.4167 82° East 435 501 36,900 480 Climbing Denver Center
06:17PM 40.0406 -102.2903 83° East 438 504 37,000  Climbing Denver Center
06:18PM 40.0619 -102.0892 82° East 439 505 37,000  Level Denver Center
06:19PM 40.0803 -101.9131 82° East 439 505 37,000  Level Denver Center
06:20PM 40.0947 -101.7572 83° East 449 517 37,000  Level Denver Center
06:21PM 40.1092 -101.6031 83° East 449 517 37,000  Level Denver Center
06:22PM 40.1269 -101.4244 83° East 446 513 37,000  Level Denver Center
06:23PM 40.1411 -101.2731 83° East 442 509 37,000  Level Denver Center
06:24PM 40.1589 -101.0986 82° East 437 503 37,000  Level Denver Center
06:25PM 40.1722 -100.9469 83° East 438 504 37,000  Level Denver Center
06:26PM 40.1856 -100.7958 83° East 439 505 37,000  Level Denver Center
06:27PM 40.2014 -100.6194 83° East 440 506 37,000  Level Denver Center
06:28PM 40.2169 -100.4444 83° East 438 504 37,000  Level Denver Center
06:29PM 40.2294 -100.2936 84° East 438 504 37,000 -300 Level Denver Center
06:30PM 40.2444 -100.1183 84° East 437 503 36,400 -780 Descending Denver Center
06:31PM 40.2572 -99.9672 84° East 436 502 35,500 -720 Descending Denver Center
06:32PM 40.2711 -99.7981 84° East 434 499 35,000 -300 Descending Denver Center
06:33PM 40.2833 -99.6403 84° East 436 502 35,000  Level Denver Center
06:34PM 40.2967 -99.4836 84° East 435 501 35,000  Level Denver Center
06:35PM 40.3081 -99.3269 85° East 434 499 35,000  Level Denver Center
06:36PM 40.3208 -99.1678 84° East 439 505 35,000  Level Denver Center
06:37PM 40.3356 -98.9786 84° East 437 503 35,000  Level Denver Center
06:38PM 40.3447 -98.8528 84° East 439 505 35,000  Level Minneapolis Center
06:39PM 40.3561 -98.6931 85° East 441 507 35,000  Level Minneapolis Center
06:40PM 40.3789 -98.5058 81° East 437 503 35,000 -360 Level Minneapolis Center
06:41PM 40.3994 -98.3439 80° East 446 513 34,300 -840 Descending Minneapolis Center
06:43PM 40.4200 -98.1831 80° East 449 517 33,300 -660 Descending Minneapolis Center
06:44PM 40.4408 -98.0219 80° East 450 518 33,000 -180 Descending Minneapolis Center
06:45PM 40.4583 -97.8611 82° East 448 516 33,000  Level Minneapolis Center
06:46PM 40.4786 -97.7003 81° East 447 514 33,000  Level Minneapolis Center
06:47PM 40.5011 -97.5064 81° East 448 516 33,000  Level Minneapolis Center
06:48PM 40.5206 -97.3436 81° East 451 519 33,000  Level Minneapolis Center
06:49PM 40.5386 -97.1878 81° East 450 518 33,000  Level Minneapolis Center
06:50PM 40.5578 -97.0214 81° East 457 526 33,000  Level Minneapolis Center
06:51PM 40.5758 -96.8564 82° East 458 527 33,000  Level Minneapolis Center
06:52PM 40.5950 -96.6922 81° East 457 526 33,000  Level Minneapolis Center
06:53PM 40.6133 -96.5286 82° East 456 525 33,000  Level Minneapolis Center
06:54PM 40.6350 -96.3342 82° East 451 519 33,000  Level Minneapolis Center
06:55PM 40.6519 -96.1692 82° East 455 524 33,000  Level Minneapolis Center
06:56PM 40.6689 -96.0075 82° East 451 519 33,000  Level Minneapolis Center
06:57PM 40.6864 -95.8447 82° East 452 520 33,000  Level Minneapolis Center
06:58PM 40.7064 -95.6497 82° East 451 519 33,000  Level Minneapolis Center
06:59PM 40.7228 -95.4842 83° East 456 525 33,000  Level Minneapolis Center
07:00PM 40.7394 -95.3203 82° East 457 526 33,000  Level Minneapolis Center
07:01PM 40.7567 -95.1536 82° East 458 527 33,000  Level Minneapolis Center
07:02PM 40.7719 -94.9856 83° East 463 533 33,000  Level Minneapolis Center
07:03PM 40.7883 -94.8167 83° East 465 535 33,000  Level Minneapolis Center
07:04PM 40.8014 -94.6797 83° East 469 540 33,000  Level Minneapolis Center
07:05PM 40.8217 -94.4544 83° East 470 541 33,000  Level Minneapolis Center
07:06PM 40.8383 -94.2828 83° East 473 544 33,000  Level Minneapolis Center
07:07PM 40.8531 -94.1122 83° East 471 542 33,000  Level Minneapolis Center
07:08PM 40.8664 -93.9428 84° East 470 541 33,000  Level Minneapolis Center
07:09PM 40.8842 -93.7361 83° East 473 544 33,000  Level Minneapolis Center
07:10PM 40.8981 -93.5653 84° East 472 543 33,000  Level Minneapolis Center
07:11PM 40.9119 -93.3917 84° East 475 547 33,000  Level Minneapolis Center
07:12PM 40.9264 -93.2178 84° East 478 550 33,000  Level Minneapolis Center
07:13PM 40.9411 -93.0411 84° East 482 555 33,000  Level Minneapolis Center
07:14PM 40.9569 -92.8281 84° East 484 557 33,000  Level Chicago Center
07:16PM 40.9706 -92.6536 84° East 481 554 33,000  Level Chicago Center
07:17PM 40.9839 -92.4781 84° East 481 554 33,000  Level Chicago Center
07:18PM 40.9967 -92.3056 84° East 477 549 33,000  Level Chicago Center
07:19PM 41.0083 -92.1333 85° East 473 544 33,000  Level Chicago Center
07:20PM 41.0197 -91.9658 85° East 465 535 33,000 -60 Level Chicago Center
07:21PM 41.0339 -91.7669 85° East 457 526 32,900 -600 Descending Chicago Center
07:22PM 41.0461 -91.5961 85° East 460 529 31,800 -960 Descending Chicago Center
07:23PM 41.0567 -91.4286 85° East 456 525 31,000 -900 Descending Chicago Center
07:24PM 41.0667 -91.2589 85° East 461 531 30,000 -1,020 Descending Chicago Center
07:25PM 41.0781 -91.0942 85° East 450 518 28,900 -1,380 Descending Chicago Center
07:26PM 41.0875 -90.9367 85° East 432 497 27,200 -1,860 Descending Chicago Center
07:27PM 41.0964 -90.7814 86° East 421 484 25,100 -1,800 Descending Chicago Center
07:28PM 41.1067 -90.6008 86° East 411 473 23,600 -1,020 Descending Chicago Center
07:29PM 41.1161 -90.4494 85° East 410 472 23,000 -300 Descending Chicago Center
07:30PM 41.1231 -90.2953 87° East 415 478 23,000 -180 Level Chicago Center
07:31PM 41.1319 -90.1383 86° East 423 487 22,700 -960 Descending Chicago Center
07:32PM 41.1400 -89.9931 86° East 399 459 21,100 -1,980 Descending Chicago Center
07:33PM 41.1478 -89.8447 86° East 399 459 18,700 -2,340 Descending Chicago Center
07:34PM 41.1558 -89.6969 86° East 400 460 16,300 -1,860 Descending Chicago Center
07:35PM 41.1622 -89.5561 87° East 389 448 14,900 -1,200 Descending Chicago Center
07:36PM 41.1739 -89.3964 84° East 367 422 13,900 -960 Descending Chicago Center
07:37PM 41.1828 -89.2631 85° East 363 418 13,000 -960 Descending Chicago Center
07:38PM 41.1906 -89.1358 85° East 361 415 12,000 -960 Descending Chicago Center
07:39PM 41.2131 -89.0122 76° East 350 403 11,100 -960 Descending Chicago Center
07:40PM 41.2669 -88.9047 56° Northeast 348 400 10,100 -540 Descending Chicago Center
07:41PM 41.3267 -88.7783 58° Northeast 339 390 10,000 -720 Descending Chicago Center
07:42PM 41.3761 -88.6758 57° Northeast 331 381 8,700 -1,560 Descending Chicago Center
07:43PM 41.4250 -88.5744 57° Northeast 327 376 6,900 -1,320 Descending Chicago Center
07:44PM 41.4700 -88.4786 58° Northeast 311 358 6,000 -480 Descending Chicago Center
07:45PM 41.4978 -88.3772 70° East 302 348 6,000  Level Chicago Center
07:46PM 41.5183 -88.2700 76° East 297 342 6,000 -540 Level Chicago Center
07:48PM 41.5436 -88.1433 75° East 293 337 5,000 -540 Descending Chicago Center
07:49PM 41.5664 -88.0372 74° East 293 337 5,000  Level Chicago Center
07:50PM 41.5864 -87.9336 75° East 289 333 5,000 -540 Level Chicago Center
07:51PM 41.6078 -87.8322 74° East 286 329 4,000 -1,020 Descending Chicago Center
07:51PM 41.6333 -87.7833 55° Northeast 281 323 3,500 -600 Descending Chicago TRACON
07:52PM 41.6833 -87.7167 45° Northeast 245 282 3,200 -780 Descending Chicago TRACON
07:53PM 41.7333 -87.6833 26° Northeast 233 268 2,000 -840 Descending Chicago TRACON
07:54PM 41.7833 -87.6667 14° North 200 230 1,700 -420 Descending Chicago TRACON
07:55PM 41.8167 -87.7167 312° West 157 181 1,300 -420 Descending Chicago TRACON